createdAt,value
2023-01-04T00:00:39.236Z,93470.09
2023-01-04T00:03:09.297Z,93462.16
2023-01-04T00:05:39.300Z,93467.28
2023-01-04T00:08:10.664Z,93460.56
2023-01-04T00:10:40.527Z,93458.13
2023-01-04T00:13:10.363Z,93465.09
2023-01-04T00:15:40.335Z,93462.63
2023-01-04T00:18:10.143Z,93464.28
2023-01-04T00:20:39.895Z,93463.47
2023-01-04T00:23:11.120Z,93451.41
2023-01-04T00:25:41.501Z,93461.69
2023-01-04T00:28:11.314Z,93459.34
2023-01-04T00:30:41.382Z,93465.56
2023-01-04T00:33:11.448Z,93467.16
2023-01-04T00:35:46.087Z,93468.66
2023-01-04T00:38:17.794Z,93470.25
2023-01-04T00:40:47.612Z,93471.13
2023-01-04T00:43:17.362Z,93470.41
2023-01-04T00:45:47.238Z,93473.16
2023-01-04T00:50:48.216Z,93477.69
2023-01-04T00:53:19.621Z,93482.91
2023-01-04T00:55:49.800Z,93484.13
2023-01-04T00:58:19.720Z,93484.31
2023-01-04T01:00:49.672Z,93481.75
2023-01-04T01:03:19.733Z,93483.50
2023-01-04T01:05:51.221Z,93481.00
2023-01-04T01:08:26.867Z,93487.69
2023-01-04T01:10:57.588Z,93478.06
2023-01-04T01:13:27.255Z,93477.81
2023-01-04T01:15:57.218Z,93480.47
2023-01-04T01:18:27.196Z,93479.66
2023-01-04T01:20:58.764Z,93478.13
2023-01-04T01:23:28.860Z,93477.25
2023-01-04T01:26:03.521Z,93475.63
2023-01-04T01:28:36.374Z,93473.81
2023-01-04T01:31:09.103Z,93472.84
2023-01-04T01:33:39.696Z,93467.75
2023-01-04T01:36:12.481Z,93458.25
2023-01-04T01:38:43.678Z,93460.88
2023-01-04T01:41:22.221Z,93464.63
2023-01-04T01:43:57.021Z,93460.56
2023-01-04T01:46:32.971Z,93462.94
2023-01-04T01:49:09.189Z,93460.06
2023-01-04T01:51:41.534Z,93471.09
2023-01-04T01:54:18.053Z,93463.50
2023-01-04T01:56:51.674Z,93464.44
2023-01-04T01:59:23.935Z,93464.34
2023-01-04T02:01:53.749Z,93457.50
2023-01-04T02:04:24.102Z,93456.78
2023-01-04T02:06:58.860Z,93456.16
2023-01-04T02:09:28.901Z,93466.69
2023-01-04T02:11:58.738Z,93461.81
2023-01-04T02:14:29.036Z,93465.31
2023-01-04T02:17:12.337Z,93460.97
2023-01-04T02:20:25.982Z,93465.38
2023-01-04T02:23:30.736Z,93474.91
2023-01-04T02:26:49.001Z,93460.31
2023-01-04T02:30:00.538Z,93457.66
2023-01-04T02:32:52.002Z,93462.78
2023-01-04T02:35:30.356Z,93451.94
2023-01-04T02:38:14.600Z,93453.84
2023-01-04T02:40:54.263Z,93457.13
2023-01-04T02:43:52.818Z,93453.41
2023-01-04T02:46:30.784Z,93454.88
2023-01-04T02:49:21.666Z,93449.78
2023-01-04T02:51:51.815Z,93460.88
2023-01-04T02:54:27.621Z,93458.28
2023-01-04T02:57:34.810Z,93457.31
2023-01-04T03:00:22.964Z,93454.59
2023-01-04T03:03:29.702Z,93465.66
2023-01-04T03:06:17.129Z,93466.47
2023-01-04T03:08:58.039Z,93466.63
2023-01-04T03:11:57.736Z,93465.97
2023-01-04T03:14:35.012Z,93460.78
2023-01-04T03:17:10.722Z,93467.03
2023-01-04T03:19:55.524Z,93467.19
2023-01-04T03:22:53.410Z,93470.72
2023-01-04T03:25:46.462Z,93466.34
2023-01-04T03:28:37.882Z,93468.13
2023-01-04T03:31:33.215Z,93472.38
2023-01-04T03:34:20.275Z,93473.28
2023-01-04T03:37:07.275Z,93475.84
2023-01-04T03:40:17.418Z,93478.53
2023-01-04T03:43:14.535Z,93477.81
2023-01-04T03:46:07.624Z,93482.94
2023-01-04T03:51:49.206Z,93483.09
2023-01-04T03:54:26.896Z,93483.09
2023-01-04T03:56:57.803Z,93483.03
2023-01-04T03:59:30.522Z,93477.94
2023-01-04T04:02:00.533Z,93476.22
2023-01-04T04:04:47.678Z,93474.41
2023-01-04T04:07:36.125Z,93473.63
2023-01-04T04:10:06.628Z,93477.84
2023-01-04T04:12:36.707Z,93477.81
2023-01-04T04:15:07.759Z,93480.38
2023-01-04T04:17:37.605Z,93483.78
2023-01-04T04:20:09.079Z,93487.91
2023-01-04T04:22:40.356Z,93493.84
2023-01-04T04:25:11.116Z,93495.47
2023-01-04T04:27:41.080Z,93495.31
2023-01-04T04:30:12.296Z,93496.03
2023-01-04T04:32:42.158Z,93499.56
2023-01-04T04:35:12.740Z,93503.91
2023-01-04T04:37:44.101Z,93504.09
2023-01-04T04:40:41.007Z,93507.72
2023-01-04T04:43:10.683Z,93517.09
2023-01-04T04:45:40.525Z,93512.91
2023-01-04T04:48:10.341Z,93514.16
2023-01-04T04:50:40.132Z,93517.47
2023-01-04T04:53:11.549Z,93519.19
2023-01-04T04:55:41.276Z,93522.84
2023-01-04T04:58:11.157Z,93530.81
2023-01-04T05:00:43.521Z,93527.25
2023-01-04T05:03:13.519Z,93523.94
2023-01-04T05:05:43.936Z,93527.34
2023-01-04T05:08:15.203Z,93527.34
2023-01-04T05:10:46.924Z,93529.91
2023-01-04T05:13:15.728Z,93521.38
2023-01-04T05:15:48.501Z,93523.22
2023-01-04T05:18:21.096Z,93529.22
2023-01-04T05:20:52.164Z,93530.19
2023-01-04T05:23:24.582Z,93523.34
2023-01-04T05:25:57.544Z,93519.06
2023-01-04T05:28:27.976Z,93516.56
2023-01-04T05:30:57.494Z,93525.16
2023-01-04T05:33:29.972Z,93530.31
2023-01-04T05:36:01.827Z,93531.25
2023-01-04T05:38:33.724Z,93530.41
2023-01-04T05:41:03.860Z,93533.81
2023-01-04T05:43:33.642Z,93538.66
2023-01-04T05:46:03.761Z,93546.25
2023-01-04T05:48:33.676Z,93550.41
2023-01-04T05:51:04.176Z,93560.84
2023-01-04T05:53:35.421Z,93554.13
2023-01-04T05:56:05.284Z,93558.50
2023-01-04T05:58:35.229Z,93564.50
2023-01-04T06:01:07.975Z,93561.19
2023-01-04T06:03:37.576Z,93553.50
2023-01-04T06:06:07.868Z,93561.78
2023-01-04T06:08:39.117Z,93562.75
2023-01-04T06:11:09.064Z,93563.09
2023-01-04T06:13:38.956Z,93557.19
2023-01-04T06:16:09.707Z,93563.06
2023-01-04T06:18:39.497Z,93566.22
2023-01-04T06:21:09.374Z,93571.13
2023-01-04T06:23:40.722Z,93571.75
2023-01-04T06:26:10.488Z,93570.47
2023-01-04T06:28:41.248Z,93571.94
2023-01-04T06:31:13.186Z,93572.91
2023-01-04T06:33:43.001Z,93582.28
2023-01-04T06:36:19.860Z,93580.53
2023-01-04T06:38:51.917Z,93583.13
2023-01-04T06:41:21.742Z,93582.09
2023-01-04T06:43:51.621Z,93585.28
2023-01-04T06:46:21.719Z,93584.19
2023-01-04T06:51:47.448Z,93575.03
2023-01-04T06:54:17.862Z,93578.22
2023-01-04T06:56:47.738Z,93578.81
2023-01-04T06:59:17.594Z,93582.72
2023-01-04T07:01:47.374Z,93591.00
2023-01-04T07:04:17.319Z,93581.16
2023-01-04T07:06:48.697Z,93585.72
2023-01-04T07:09:18.601Z,93591.09
2023-01-04T07:11:48.457Z,93589.72
2023-01-04T07:14:18.701Z,93582.25
2023-01-04T07:16:49.058Z,93577.34
2023-01-04T07:19:19.199Z,93589.41
2023-01-04T07:21:51.090Z,93587.25
2023-01-04T07:24:26.145Z,93587.00
2023-01-04T07:27:01.121Z,93575.47
2023-01-04T07:29:31.138Z,93575.28
2023-01-04T07:32:01.117Z,93588.78
2023-01-04T07:34:31.720Z,93583.16
2023-01-04T07:37:04.123Z,93587.09
2023-01-04T07:39:34.137Z,93583.44
2023-01-04T07:42:03.983Z,93587.78
2023-01-04T07:44:33.837Z,93594.81
2023-01-04T07:47:03.744Z,93595.94
2023-01-04T07:49:33.943Z,93594.94
2023-01-04T07:52:06.416Z,93593.91
2023-01-04T07:54:36.095Z,93599.75
2023-01-04T07:57:06.173Z,93603.28
2023-01-04T07:59:36.062Z,93597.75
2023-01-04T08:02:06.185Z,93604.63
2023-01-04T08:04:36.115Z,93600.81
2023-01-04T08:07:07.815Z,93601.63
2023-01-04T08:09:37.672Z,93610.47
2023-01-04T08:12:08.191Z,93610.16
2023-01-04T08:14:37.982Z,93596.19
2023-01-04T08:17:07.849Z,93600.97
2023-01-04T08:19:37.603Z,93596.41
2023-01-04T08:22:09.095Z,93601.25
2023-01-04T08:24:39.010Z,93608.59
2023-01-04T08:27:08.863Z,93604.06
2023-01-04T08:29:39.061Z,93604.72
2023-01-04T08:32:09.380Z,93599.50
2023-01-04T08:34:39.235Z,93596.91
2023-01-04T08:37:10.763Z,93597.00
2023-01-04T08:39:45.380Z,93593.09
2023-01-04T08:42:25.096Z,93591.88
2023-01-04T08:44:59.781Z,93595.59
2023-01-04T08:47:30.520Z,93593.00
2023-01-04T08:50:09.617Z,93594.09
2023-01-04T08:52:42.073Z,93595.31
2023-01-04T08:55:14.552Z,93593.28
2023-01-04T08:57:45.935Z,93593.84
2023-01-04T09:00:18.524Z,93595.22
2023-01-04T09:02:48.883Z,93587.84
2023-01-04T09:05:22.813Z,93592.69
2023-01-04T09:07:54.950Z,93593.72
2023-01-04T09:10:24.729Z,93587.81
2023-01-04T09:12:54.595Z,93593.94
2023-01-04T09:15:24.442Z,93591.31
2023-01-04T09:20:44.602Z,93591.31
2023-01-04T09:23:15.986Z,93593.03
2023-01-04T09:25:45.926Z,93583.50
2023-01-04T09:28:15.783Z,93575.69
2023-01-04T09:30:45.557Z,93573.78
2023-01-04T09:33:15.667Z,93576.38
2023-01-04T09:35:45.501Z,93569.31
2023-01-04T09:38:16.876Z,93567.56
2023-01-04T09:40:59.622Z,93561.97
2023-01-04T09:43:39.141Z,93560.84
2023-01-04T09:46:13.633Z,93565.44
2023-01-04T09:51:55.223Z,93561.03
2023-01-04T09:54:30.870Z,93569.25
2023-01-04T09:57:02.392Z,93573.06
2023-01-04T09:59:34.096Z,93566.81
2023-01-04T10:02:13.926Z,93558.34
2023-01-04T10:04:50.164Z,93558.53
2023-01-04T10:07:30.621Z,93556.09
2023-01-04T10:10:01.248Z,93543.91
2023-01-04T10:12:48.200Z,93547.44
2023-01-04T10:15:33.283Z,93549.56
2023-01-04T10:19:59.665Z,93542.28
2023-01-04T10:21:34.743Z,93536.13
2023-01-04T10:24:31.155Z,93541.28
2023-01-04T10:27:09.492Z,93545.56
2023-01-04T10:29:54.523Z,93546.03
2023-01-04T10:32:38.612Z,93538.91
2023-01-04T10:35:22.196Z,93532.69
2023-01-04T10:37:55.631Z,93537.63
2023-01-04T10:40:28.481Z,93539.56
2023-01-04T10:43:05.054Z,93531.84
2023-01-04T10:45:42.681Z,93534.47
2023-01-04T10:48:24.156Z,93531.63
2023-01-04T10:51:07.071Z,93531.16
2023-01-04T10:53:45.744Z,93527.97
2023-01-04T10:56:27.459Z,93521.59
2023-01-04T10:59:07.419Z,93528.19
2023-01-04T11:01:42.622Z,93527.19
2023-01-04T11:04:21.003Z,93517.56
2023-01-04T11:06:55.999Z,93527.72
2023-01-04T11:09:28.796Z,93526.59
2023-01-04T11:12:00.365Z,93521.25
2023-01-04T11:14:37.007Z,93529.72
2023-01-04T11:17:10.644Z,93526.81
2023-01-04T11:19:41.889Z,93531.75
2023-01-04T11:22:21.121Z,93532.50
2023-01-04T11:27:53.421Z,93533.88
2023-01-04T11:30:26.846Z,93523.53
2023-01-04T11:33:03.377Z,93521.00
2023-01-04T11:35:45.359Z,93522.16
2023-01-04T11:38:19.120Z,93518.97
2023-01-04T11:41:00.560Z,93522.66
2023-01-04T11:43:33.881Z,93521.06
2023-01-04T11:46:07.189Z,93534.41
2023-01-04T11:48:43.612Z,93529.50
2023-01-04T11:51:36.854Z,93525.50
2023-01-04T11:54:19.390Z,93517.97
2023-01-04T11:57:11.823Z,93521.50
2023-01-04T11:59:43.677Z,93519.19
2023-01-04T12:02:58.738Z,93528.78
2023-01-04T12:05:29.593Z,93531.69
2023-01-04T12:08:01.679Z,93532.09
2023-01-04T12:10:32.075Z,93528.84
2023-01-04T12:13:04.268Z,93526.53
2023-01-04T12:15:45.779Z,93517.03
2023-01-04T12:18:22.985Z,93529.97
2023-01-04T12:20:52.890Z,93526.72
2023-01-04T12:23:23.201Z,93523.44
2023-01-04T12:25:54.623Z,93529.78
2023-01-04T12:28:46.998Z,93527.47
2023-01-04T12:31:42.042Z,93530.47
2023-01-04T12:34:43.747Z,93524.72
2023-01-04T12:37:49.778Z,93525.84
2023-01-04T12:40:57.935Z,93529.38
2023-01-04T12:43:29.955Z,93527.13
2023-01-04T12:47:01.112Z,93524.91
2023-01-04T12:52:20.494Z,93534.13
2023-01-04T12:54:50.674Z,93529.28
2023-01-04T12:57:37.252Z,93527.88
2023-01-04T13:00:12.161Z,93528.06
2023-01-04T13:02:48.066Z,93530.00
2023-01-04T13:05:56.042Z,93526.78
2023-01-04T13:08:29.624Z,93532.97
2023-01-04T13:11:00.728Z,93538.28
2023-01-04T13:13:37.788Z,93535.75
2023-01-04T13:16:19.437Z,93538.47
2023-01-04T13:18:53.884Z,93537.06
2023-01-04T13:21:33.363Z,93538.06
2023-01-04T13:24:23.827Z,93541.63
2023-01-04T13:26:54.874Z,93544.31
2023-01-04T13:29:28.685Z,93536.59
2023-01-04T13:32:02.043Z,93532.47
2023-01-04T13:34:35.658Z,93537.84
2023-01-04T13:37:29.217Z,93535.34
2023-01-04T13:40:28.904Z,93537.13
2023-01-04T13:43:40.690Z,93544.22
2023-01-04T13:46:17.744Z,93541.78
2023-01-04T13:49:15.970Z,93542.72
2023-01-04T13:51:40.749Z,93546.31
2023-01-04T13:54:22.638Z,93549.19
2023-01-04T13:56:56.053Z,93555.59
2023-01-04T13:59:26.101Z,93551.22
2023-01-04T14:01:56.062Z,93547.03
2023-01-04T14:04:30.103Z,93553.19
2023-01-04T14:07:02.303Z,93548.91
2023-01-04T14:09:37.340Z,93551.66
2023-01-04T14:12:19.025Z,93549.16
2023-01-04T14:14:53.980Z,93551.84
2023-01-04T14:17:35.608Z,93565.06
2023-01-04T14:20:07.044Z,93564.38
2023-01-04T14:22:42.302Z,93557.56
2023-01-04T14:25:41.132Z,93551.69
2023-01-04T14:28:36.126Z,93557.84
2023-01-04T14:31:37.075Z,93564.16
2023-01-04T14:34:16.484Z,93562.56
2023-01-04T14:36:46.741Z,93560.97
2023-01-04T14:39:36.694Z,93567.19
2023-01-04T14:42:07.593Z,93574.09
2023-01-04T14:44:41.436Z,93567.28
2023-01-04T14:47:14.292Z,93570.03
2023-01-04T14:49:44.156Z,93571.13
2023-01-04T14:52:22.383Z,93572.16
2023-01-04T14:54:52.263Z,93576.78
2023-01-04T14:57:22.393Z,93573.41
2023-01-04T14:59:53.783Z,93582.25
2023-01-04T15:02:26.149Z,93572.94
2023-01-04T15:04:56.157Z,93579.97
2023-01-04T15:07:38.312Z,93581.00
2023-01-04T15:10:26.719Z,93576.78
2023-01-04T15:12:57.955Z,93582.09
2023-01-04T15:15:29.796Z,93579.56
2023-01-04T15:17:59.686Z,93568.56
2023-01-04T15:20:29.754Z,93571.25
2023-01-04T15:22:59.603Z,93579.13
2023-01-04T15:25:30.050Z,93581.72
2023-01-04T15:28:00.172Z,93575.69
2023-01-04T15:30:31.599Z,93574.84
2023-01-04T15:33:01.421Z,93576.72
2023-01-04T15:35:31.266Z,93582.75
2023-01-04T15:38:01.104Z,93586.19
2023-01-04T15:40:31.213Z,93588.00
2023-01-04T15:42:59.896Z,93589.88
2023-01-04T15:45:33.374Z,93593.41
2023-01-04T15:48:04.616Z,93596.91
2023-01-04T15:51:47.246Z,93604.81
2023-01-04T15:54:17.781Z,93598.75
2023-01-04T15:56:47.836Z,93597.84
2023-01-04T15:59:17.725Z,93601.47
2023-01-04T16:01:47.970Z,93599.94
2023-01-04T16:04:17.945Z,93608.00
2023-01-04T16:06:49.282Z,93607.06
2023-01-04T16:09:19.254Z,93602.59
2023-01-04T16:12:06.545Z,93608.59
2023-01-04T16:14:36.537Z,93605.81
2023-01-04T16:17:06.295Z,93600.63
2023-01-04T16:19:36.214Z,93599.69
2023-01-04T16:22:07.668Z,93598.44
2023-01-04T16:25:09.387Z,93599.56
2023-01-04T16:27:34.767Z,93602.50
2023-01-04T16:30:05.925Z,93598.47
2023-01-04T16:32:37.276Z,93601.81
2023-01-04T16:35:08.261Z,93601.59
2023-01-04T16:37:40.282Z,93602.25
2023-01-04T16:40:12.033Z,93599.81
2023-01-04T16:42:43.380Z,93598.38
2023-01-04T16:45:15.072Z,93594.28
2023-01-04T16:47:46.904Z,93595.34
2023-01-04T16:50:16.961Z,93597.34
2023-01-04T16:52:48.362Z,93606.81
2023-01-04T16:55:23.608Z,93592.25
2023-01-04T16:57:54.097Z,93594.84
2023-01-04T17:00:24.482Z,93595.69
2023-01-04T17:02:54.450Z,93601.88
2023-01-04T17:05:24.378Z,93605.50
2023-01-04T17:07:55.796Z,93604.47
2023-01-04T17:10:29.336Z,93608.84
2023-01-04T17:12:59.655Z,93604.81
2023-01-04T17:15:42.961Z,93603.28
2023-01-04T17:18:15.629Z,93605.19
2023-01-04T17:20:45.701Z,93605.28
2023-01-04T17:23:17.036Z,93606.13
2023-01-04T17:25:46.922Z,93605.34
2023-01-04T17:28:22.818Z,93613.13
2023-01-04T17:30:54.680Z,93607.19
2023-01-04T17:33:24.597Z,93610.88
2023-01-04T17:35:54.740Z,93615.22
2023-01-04T17:38:26.286Z,93610.88
2023-01-04T17:40:56.019Z,93616.81
2023-01-04T17:43:26.011Z,93614.38
2023-01-04T17:45:55.907Z,93614.44
2023-01-04T17:48:25.742Z,93613.69
2023-01-04T17:50:55.495Z,93616.34
2023-01-04T17:53:26.804Z,93617.22
2023-01-04T17:58:31.355Z,93617.00
2023-01-04T18:01:01.983Z,93620.41
2023-01-04T18:03:32.315Z,93617.00
2023-01-04T18:06:24.405Z,93617.03
2023-01-04T18:08:53.511Z,93616.34
2023-01-04T18:11:24.163Z,93623.25
2023-01-04T18:13:54.783Z,93620.66
2023-01-04T18:16:28.172Z,93623.06
2023-01-04T18:18:59.906Z,93616.06
2023-01-04T18:21:31.767Z,93615.03
2023-01-04T18:27:21.078Z,93625.28
2023-01-04T18:29:45.232Z,93621.72
2023-01-04T18:32:15.055Z,93627.66
2023-01-04T18:34:44.888Z,93625.06
2023-01-04T18:37:16.359Z,93634.63
2023-01-04T18:39:48.154Z,93626.91
2023-01-04T18:42:18.579Z,93626.06
2023-01-04T18:44:49.894Z,93625.28
2023-01-04T18:47:21.556Z,93627.75
2023-01-04T18:51:47.076Z,93627.84
2023-01-04T18:54:20.961Z,93629.50
2023-01-04T18:56:53.185Z,93613.91
2023-01-04T18:59:27.050Z,93624.47
2023-01-04T19:02:02.016Z,93620.41
2023-01-04T19:04:33.377Z,93622.41
2023-01-04T19:07:05.520Z,93621.72
2023-01-04T19:09:35.336Z,93617.44
2023-01-04T19:12:05.348Z,93617.28
2023-01-04T19:14:35.134Z,93619.88
2023-01-04T19:17:05.200Z,93621.56
2023-01-04T19:19:35.341Z,93624.16
2023-01-04T19:22:07.005Z,93618.22
2023-01-04T19:24:36.784Z,93626.00
2023-01-04T19:27:06.864Z,93626.84
2023-01-04T19:29:38.893Z,93622.41
2023-01-04T19:32:08.908Z,93615.28
2023-01-04T19:34:38.984Z,93621.31
2023-01-04T19:37:10.325Z,93612.69
2023-01-04T19:39:40.481Z,93612.69
2023-01-04T19:42:10.374Z,93615.28
2023-01-04T19:44:40.541Z,93612.69
2023-01-04T19:47:10.481Z,93611.09
2023-01-04T19:49:40.432Z,93618.91
2023-01-04T19:52:11.883Z,93610.31
2023-01-04T19:54:41.696Z,93606.06
2023-01-04T19:57:11.502Z,93607.81
2023-01-04T19:59:41.454Z,93613.09
2023-01-04T20:02:12.929Z,93598.25
2023-01-04T20:04:43.115Z,93608.66
2023-01-04T20:07:14.595Z,93598.34
2023-01-04T20:09:44.716Z,93605.31
2023-01-04T20:12:14.607Z,93603.59
2023-01-04T20:14:44.437Z,93604.44
2023-01-04T20:17:14.304Z,93606.28
2023-01-04T20:19:44.196Z,93595.97
2023-01-04T20:22:15.619Z,93602.94
2023-01-04T20:24:45.485Z,93595.16
2023-01-04T20:27:15.286Z,93599.56
2023-01-04T20:29:45.024Z,93598.88
2023-01-04T20:32:14.886Z,93590.16
2023-01-04T20:34:44.897Z,93589.31
2023-01-04T20:37:16.400Z,93590.09
2023-01-04T20:39:46.219Z,93593.38
2023-01-04T20:42:33.059Z,93590.00
2023-01-04T20:45:02.940Z,93585.84
2023-01-04T20:47:33.044Z,93583.13
2023-01-04T20:50:02.934Z,93585.66
2023-01-04T20:52:34.237Z,93584.13
2023-01-04T20:55:04.196Z,93582.69
2023-01-04T20:57:34.274Z,93575.03
2023-01-04T21:00:04.201Z,93576.06
2023-01-04T21:02:38.102Z,93570.09
2023-01-04T21:05:10.083Z,93571.00
2023-01-04T21:07:41.468Z,93569.25
2023-01-04T21:10:11.643Z,93578.78
2023-01-04T21:12:41.423Z,93578.06
2023-01-04T21:15:12.755Z,93569.47
2023-01-04T21:17:43.144Z,93572.22
2023-01-04T21:20:13.808Z,93571.25
2023-01-04T21:22:45.298Z,93562.53
2023-01-04T21:25:15.099Z,93560.75
2023-01-04T21:27:45.144Z,93553.91
2023-01-04T21:30:16.172Z,93552.09
2023-01-04T21:32:46.168Z,93562.53
2023-01-04T21:35:16.098Z,93554.81
2023-01-04T21:37:47.464Z,93556.63
2023-01-04T21:40:17.421Z,93548.00
2023-01-04T21:42:47.197Z,93552.31
2023-01-04T21:45:20.001Z,93545.41
2023-01-04T21:47:49.543Z,93549.63
2023-01-04T21:51:46.971Z,93546.09
2023-01-04T21:54:16.740Z,93542.75
2023-01-04T21:56:46.790Z,93541.16
2023-01-04T21:59:16.799Z,93545.50
2023-01-04T22:01:46.709Z,93536.91
2023-01-04T22:04:16.730Z,93538.00
2023-01-04T22:06:48.083Z,93538.06
2023-01-04T22:09:17.922Z,93539.09
2023-01-04T22:11:48.803Z,93534.72
2023-01-04T22:14:19.055Z,93534.72
2023-01-04T22:16:48.995Z,93529.59
2023-01-04T22:19:18.891Z,93526.16
2023-01-04T22:21:50.363Z,93520.13
2023-01-04T22:24:20.518Z,93518.50
2023-01-04T22:26:52.602Z,93513.41
2023-01-04T22:29:22.489Z,93510.81
2023-01-04T22:31:52.445Z,93508.22
2023-01-04T22:34:22.361Z,93503.03
2023-01-04T22:36:53.757Z,93500.34
2023-01-04T22:39:23.920Z,93501.22
2023-01-04T22:41:53.905Z,93496.03
2023-01-04T22:44:23.802Z,93489.97
2023-01-04T22:46:53.694Z,93485.78
2023-01-04T22:49:23.727Z,93487.53
2023-01-04T22:51:56.476Z,93485.09
2023-01-04T22:54:25.955Z,93480.81
2023-01-04T22:56:55.783Z,93481.75
2023-01-04T22:59:27.207Z,93469.66
2023-01-04T23:01:57.226Z,93476.47
2023-01-04T23:04:27.379Z,93472.19
2023-01-04T23:06:58.853Z,93470.50
2023-01-04T23:09:28.704Z,93467.91
2023-01-04T23:11:58.515Z,93463.50
2023-01-04T23:14:28.521Z,93465.16
2023-01-04T23:16:58.381Z,93461.72
2023-01-04T23:19:29.237Z,93458.31
2023-01-04T23:22:00.598Z,93467.00
2023-01-04T23:24:30.422Z,93462.72
2023-01-04T23:27:03.353Z,93453.25
2023-01-04T23:29:33.161Z,93455.78
2023-01-04T23:32:03.097Z,93453.09
2023-01-04T23:34:33.113Z,93436.69
2023-01-04T23:37:04.555Z,93446.31
2023-01-04T23:39:34.319Z,93444.72
2023-01-04T23:42:04.055Z,93430.06
2023-01-04T23:44:33.994Z,93434.41
2023-01-04T23:47:06.688Z,93433.66
2023-01-04T23:49:37.537Z,93431.97
2023-01-04T23:52:09.984Z,93427.69
2023-01-04T23:54:40.921Z,93432.03
2023-01-04T23:57:10.775Z,93423.50
2023-01-04T23:59:40.607Z,93425.97
